LFOT 211130Z AUTO 04008KT 360V080 9999 SCT020 05/01 Q1038 NOSIG

ElémentsDécodage
LFOT Station météo située sur l'aérodrome de TOURS Val-de-Loire
211130Z émis le 21 du mois à 11h30 UTC
AUTO Bulletin édité par un automate
04008KT vent du 040°, 08 noeuds
360V080 vent de direction variable entre 360° et 080°
9999 visibilité horizontale supérieure à 10 Km
SCT020 nuages épars (3/8 à 4/8) à 2000 pieds
05/01 température 05°C, point de rosée 01°C
 soit une humidité relative de 75%
Q1038 la pression au niveau de la mer (QNH) est de 1038 hPa
NOSIG Pas de changement significatif prévu au cours des deux heures suivant l'heure de l'observation